Terminal Aerodrome Forecast
Issued by NWS Austin/San Antonio, TX

Home | Current Version | Previous Version | Text Only | Print | Product List | Glossary On
Versions: 1 2 3 4 5 6 7 8 9 10 11 12 13 14 15 16 17 18 19 20 21
631
FTUS44 KEWX 280524
TAFSAT
TAF
KSAT 280524Z 2806/2912 11005KT P6SM SCT250
     FM281000 05005KT P6SM SCT015
      TEMPO 2811/2814 BKN015
     FM281700 05005KT P6SM SCT025 BKN040 PROB30 2820/2824 -TSRA
      BKN040CB
     FM290300 VRB03KT P6SM BKN120
     FM290900 VRB03KT P6SM BKN015=

USA.gov is the U.S. government's official web portal to all federal, state and local government web resources and services.